Time;durP1;ratioP1;P1;durP2;ratioP2;P2;SDS_P1;SDS_P2;PMS_P1;PMS_P2;Temp;Humidity;BMP_temperature;BMP_pressure;BME280_temperature;BME280_humidity;BME280_pressure;Samples;Min_cycle;Max_cycle;Signal;HPM_P1;HPM_P2
2022/12/27 10:38:53;;;;;;;3.93;1.77;;;;;;;12.06;69.51;100081.41;5110252;28;20568;-84
2022/12/27 10:41:39;;;;;;;4.93;1.90;;;;;;;13.05;66.41;100087.81;5092111;28;39783;-86
2022/12/27 10:44:10;;;;;;;4.27;1.67;;;;;;;15.36;57.50;100138.44;5109445;28;40729;-86
2022/12/27 10:46:41;;;;;;;7.57;1.83;;;;;;;17.08;53.57;100142.38;5091822;28;42439;-86
2022/12/27 10:49:22;;;;;;;2.63;1.40;;;;;;;17.53;51.31;100125.81;5092433;28;42317;-85
2022/12/27 10:51:51;;;;;;;2.43;1.70;;;;;;;17.90;50.42;100133.91;5091711;28;39143;-86
2022/12/27 10:54:24;;;;;;;2.77;1.23;;;;;;;17.52;48.66;100156.25;5092174;28;40631;-88
2022/12/27 10:56:53;;;;;;;5.23;1.90;;;;;;;16.01;51.13;100120.09;5106474;28;44237;-86
2022/12/27 10:59:22;;;;;;;2.90;1.77;;;;;;;15.12;51.60;100142.63;5092036;28;41010;-85
2022/12/27 11:02:14;;;;;;;2.20;1.40;;;;;;;14.20;53.10;100111.66;5125965;27;40186;-87
2022/12/27 11:04:56;;;;;;;5.00;1.70;;;;;;;13.50;54.74;100121.75;5092186;28;40593;-84
2022/12/27 11:07:29;;;;;;;4.47;1.80;;;;;;;12.85;55.86;100101.31;5125437;27;42831;-86
2022/12/27 11:10:08;;;;;;;3.50;1.50;;;;;;;12.26;56.44;100107.81;5126297;27;41306;-87
2022/12/27 11:12:36;;;;;;;3.50;1.63;;;;;;;11.67;57.92;100077.03;5125776;27;39164;-85
2022/12/27 11:15:14;;;;;;;3.70;1.63;;;;;;;11.52;58.75;100101.63;5091857;28;41780;-86
2022/12/27 11:17:45;;;;;;;3.87;1.67;;;;;;;10.90;60.16;100038.22;5125799;27;42839;-87
2022/12/27 11:20:22;;;;;;;3.77;1.50;;;;;;;10.89;61.26;100063.84;5091623;28;41734;-86
2022/12/27 11:22:55;;;;;;;5.47;1.70;;;;;;;11.06;61.90;100063.97;5125831;27;39767;-87
2022/12/27 11:25:29;;;;;;;2.60;1.90;;;;;;;11.19;61.24;100095.22;5125813;27;42210;-86
2022/12/27 11:28:01;;;;;;;3.73;1.50;;;;;;;11.15;62.24;100068.84;5096825;28;41796;-86
2022/12/27 11:30:33;;;;;;;3.67;1.57;;;;;;;11.73;60.65;100087.38;5129781;27;44340;-85
2022/12/27 11:33:06;;;;;;;5.13;1.53;;;;;;;11.50;59.91;100090.22;5125854;27;39936;-86
2022/12/27 11:35:48;;;;;;;1.97;1.53;;;;;;;11.96;60.83;100062.41;5126111;27;40734;-85
2022/12/27 11:38:23;;;;;;;3.47;1.93;;;;;;;12.80;60.37;100063.44;5090959;28;41582;-86
2022/12/27 11:41:03;;;;;;;4.23;1.60;;;;;;;12.65;60.32;100056.25;5091956;28;41171;-86
2022/12/27 11:43:36;;;;;;;4.20;1.60;;;;;;;12.70;58.28;100080.81;5091025;28;40094;-85
2022/12/27 11:46:10;;;;;;;2.63;1.30;;;;;;;12.75;56.41;100090.25;5125853;27;40743;-86
2022/12/27 11:48:42;;;;;;;3.30;1.63;;;;;;;13.04;56.04;100086.09;5120217;27;41682;-86
2022/12/27 11:51:40;;;;;;;3.67;1.60;;;;;;;12.82;55.51;100083.72;5111591;28;42532;-88
2022/12/27 11:54:37;;;;;;;3.40;1.40;;;;;;;12.53;56.71;100053.31;5111363;28;39194;-87
2022/12/27 11:57:18;;;;;;;3.77;1.57;;;;;;;12.42;55.95;100060.09;5076712;28;42604;-88
2022/12/27 12:00:02;;;;;;;3.10;1.60;;;;;;;12.56;56.13;100066.44;5077539;28;44019;-87
2022/12/27 12:02:43;;;;;;;2.60;1.53;;;;;;;12.62;55.41;100065.25;5094374;28;41370;-85
2022/12/27 12:05:48;;;;;;;3.93;1.40;;;;;;;13.35;54.04;100085.34;5077731;28;38989;-86
2022/12/27 12:08:33;;;;;;;5.43;1.40;;;;;;;13.41;54.33;100078.81;5077309;28;40276;-85
2022/12/27 12:11:12;;;;;;;4.37;1.40;;;;;;;13.24;54.04;100069.94;5077462;28;43017;-87
2022/12/27 12:14:05;;;;;;;2.17;1.30;;;;;;;13.68;53.21;100056.00;5077218;28;42708;-85
2022/12/27 12:17:19;;;;;;;2.77;1.20;;;;;;;14.12;52.06;100090.75;5076397;28;39168;-86
2022/12/27 12:20:22;;;;;;;3.10;1.40;;;;;;;14.96;50.88;100099.16;5111158;28;40401;-86
2022/12/27 12:23:05;;;;;;;5.33;1.40;;;;;;;14.12;50.45;100084.56;5077056;28;43011;-86
2022/12/27 12:26:06;;;;;;;2.20;1.20;;;;;;;13.36;51.98;100094.16;5077363;28;42868;-85
2022/12/27 12:29:03;;;;;;;3.30;1.40;;;;;;;12.71;53.63;100088.72;5076569;28;39163;-84
2022/12/27 12:32:13;;;;;;;2.00;1.30;;;;;;;12.09;54.20;100074.16;5077064;28;40739;-85
2022/12/27 12:35:04;;;;;;;3.10;1.40;;;;;;;13.07;53.97;100085.06;5018925;28;43386;-86
2022/12/27 12:37:51;;;;;;;3.17;1.20;;;;;;;14.64;51.36;100083.28;5075907;28;40865;-87
2022/12/27 12:40:35;;;;;;;2.00;1.27;;;;;;;16.27;48.72;100109.53;5077020;28;38985;-87
2022/12/27 12:43:20;;;;;;;3.33;1.30;;;;;;;17.01;46.73;100111.66;5077218;28;40486;-86
2022/12/27 12:46:01;;;;;;;1.80;1.20;;;;;;;16.86;46.82;100119.78;5076405;28;43091;-86
2022/12/27 12:48:52;;;;;;;2.03;1.10;;;;;;;15.85;47.40;100098.00;5109934;28;40954;-90
2022/12/27 12:51:37;;;;;;;2.57;1.10;;;;;;;14.72;48.64;100107.66;5093542;28;39172;-87
2022/12/27 12:54:15;;;;;;;4.70;1.53;;;;;;;13.78;50.24;100083.81;5090557;28;41915;-86
2022/12/27 12:57:01;;;;;;;3.67;1.67;;;;;;;13.28;50.61;100090.13;5076380;28;41868;-86
2022/12/27 12:59:51;;;;;;;2.90;1.40;;;;;;;12.73;52.21;100072.69;5093516;28;41007;-86
2022/12/27 13:02:40;;;;;;;3.27;1.10;;;;;;;12.50;53.22;100042.81;5076051;28;40420;-86
2022/12/27 13:05:15;;;;;;;5.27;1.50;;;;;;;12.46;53.40;100035.97;5076637;28;40635;-86
2022/12/27 13:11:05;;;;;;;2.03;1.40;;;;;;;12.10;53.71;100044.00;5110288;28;20550;-85
2022/12/27 13:13:46;;;;;;;5.53;1.40;;;;;;;12.08;54.20;100039.69;5092451;28;38878;-86
2022/12/27 13:16:24;;;;;;;4.03;1.20;;;;;;;11.90;54.00;100049.41;5092714;28;41076;-86
2022/12/27 13:19:04;;;;;;;3.53;1.10;;;;;;;11.71;54.88;100049.44;5091967;28;41339;-86
2022/12/27 13:21:51;;;;;;;3.60;1.67;;;;;;;11.44;55.50;100042.78;5140664;27;42268;-86
2022/12/27 13:24:26;;;;;;;1.70;1.33;;;;;;;11.16;56.07;100027.28;5091998;28;38848;-85
2022/12/27 13:27:05;;;;;;;6.80;1.70;;;;;;;10.88;56.73;100017.06;5092285;28;40976;-86
2022/12/27 13:29:55;;;;;;;3.93;1.40;;;;;;;10.84;57.80;100031.41;5092282;28;41613;-85
2022/12/27 13:32:34;;;;;;;2.40;1.53;;;;;;;10.68;58.12;100009.16;5092154;28;41127;-84
2022/12/27 13:35:17;;;;;;;6.87;1.80;;;;;;;10.58;57.95;100029.06;5091650;28;38952;-86
2022/12/27 13:38:02;;;;;;;4.50;1.73;;;;;;;10.34;58.89;100018.59;5113965;28;41718;-86
2022/12/27 13:40:59;;;;;;;3.27;1.63;;;;;;;10.04;59.56;99996.91;5132761;27;42007;-86
2022/12/27 13:44:30;;;;;;;6.17;1.73;;;;;;;9.91;59.99;100010.69;5091890;28;41469;-87
2022/12/27 13:47:31;;;;;;;4.03;1.37;;;;;;;9.65;60.62;100025.84;5027760;28;39802;-86
2022/12/27 13:50:17;;;;;;;3.67;1.27;;;;;;;9.40;61.63;100009.22;5021510;28;41902;-87
2022/12/27 13:52:58;;;;;;;3.70;1.50;;;;;;;9.19;62.25;100004.78;5079512;28;43004;-87
2022/12/27 13:55:49;;;;;;;4.80;1.53;;;;;;;9.07;62.85;99989.41;5091528;28;42456;-88
2022/12/27 13:58:58;;;;;;;2.83;1.30;;;;;;;9.05;63.21;100004.44;5091344;28;38920;-87
2022/12/27 14:01:41;;;;;;;7.43;1.70;;;;;;;8.88;63.49;99990.13;5091671;28;40833;-86
2022/12/27 14:04:34;;;;;;;3.40;1.33;;;;;;;8.73;64.46;99989.81;5107823;28;42683;-87
2022/12/27 14:07:16;;;;;;;3.13;1.50;;;;;;;8.68;64.45;99989.97;5105408;28;43548;-86
2022/12/27 14:10:17;;;;;;;4.87;1.70;;;;;;;8.73;64.99;100005.66;5124686;27;38988;-86
2022/12/27 14:12:59;;;;;;;3.87;1.53;;;;;;;8.55;65.44;99981.63;5091005;28;42515;-85
2022/12/27 14:15:59;;;;;;;4.07;1.70;;;;;;;8.51;65.51;99974.75;5091166;28;42750;-86
2022/12/27 14:18:47;;;;;;;4.07;1.23;;;;;;;8.45;65.65;99987.31;5091062;28;43049;-83
2022/12/27 14:21:42;;;;;;;5.03;2.17;;;;;;;8.51;65.85;100009.09;5095473;28;40953;-85
2022/12/27 14:24:26;;;;;;;5.93;1.67;;;;;;;8.43;66.01;100012.88;5077155;28;40276;-85
2022/12/27 14:27:24;;;;;;;5.40;1.73;;;;;;;8.39;66.42;100012.16;5077397;28;41803;-84
2022/12/27 14:30:26;;;;;;;3.07;1.40;;;;;;;8.34;66.53;100018.50;5091621;28;41520;-85
2022/12/27 14:33:28;;;;;;;3.90;1.70;;;;;;;8.18;67.01;99999.66;5060824;28;39027;-85
2022/12/27 14:36:42;;;;;;;2.33;1.40;;;;;;;8.05;66.92;99991.28;5091040;28;41449;-85
2022/12/27 14:39:55;;;;;;;5.00;2.03;;;;;;;8.12;67.31;100019.22;5092180;28;42999;-86
2022/12/27 14:42:56;;;;;;;2.53;1.23;;;;;;;7.93;67.65;100002.25;5058729;28;41204;-85
2022/12/27 14:46:03;;;;;;;2.90;1.67;;;;;;;7.90;68.28;100010.31;5077128;28;39101;-85
2022/12/27 14:49:18;;;;;;;4.77;1.57;;;;;;;7.81;68.44;100005.31;5076864;28;41822;-86
2022/12/27 14:52:16;;;;;;;2.37;1.30;;;;;;;7.50;68.97;99972.03;5064078;28;43429;-85
2022/12/27 14:55:19;;;;;;;1.50;1.40;;;;;;;7.70;69.23;99999.53;5077028;28;42287;-86
2022/12/27 14:57:58;;;;;;;2.57;1.33;;;;;;;7.51;69.12;99984.31;5069682;28;39979;-84
2022/12/27 15:00:33;;;;;;;4.70;1.70;;;;;;;7.44;69.75;99988.03;5083951;28;42273;-85
2022/12/27 15:03:16;;;;;;;4.43;1.50;;;;;;;7.43;70.78;99993.34;5090483;28;42380;-85
2022/12/27 15:05:55;;;;;;;1.80;1.40;;;;;;;7.43;70.84;99999.50;5090333;28;42399;-85
2022/12/27 15:08:47;;;;;;;2.90;1.40;;;;;;;7.35;71.28;100006.78;5123636;28;39034;-85
2022/12/27 15:11:38;;;;;;;3.40;1.53;;;;;;;7.26;72.38;100004.44;5090227;28;42514;-85
2022/12/27 15:14:23;;;;;;;2.60;1.33;;;;;;;7.09;72.35;99980.38;5094824;28;43219;-85
2022/12/27 15:17:03;;;;;;;2.30;1.40;;;;;;;7.02;72.94;99984.13;5077191;28;43743;-85
2022/12/27 15:19:50;;;;;;;5.63;1.50;;;;;;;6.95;73.33;99982.56;5110226;28;40930;-85
2022/12/27 15:22:25;;;;;;;1.93;1.40;;;;;;;7.00;73.53;99999.97;5076890;28;40632;-85
2022/12/27 15:25:03;;;;;;;4.87;2.10;;;;;;;6.90;73.86;99989.75;5092628;28;42765;-85
2022/12/27 15:27:37;;;;;;;8.23;2.00;;;;;;;6.84;74.16;99991.63;5110795;28;43375;-85
2022/12/27 15:30:22;;;;;;;3.73;1.60;;;;;;;6.68;74.91;99979.81;5076620;28;40013;-84
2022/12/27 15:33:00;;;;;;;5.17;1.70;;;;;;;6.51;74.74;99963.66;5075740;28;41130;-84
2022/12/27 15:35:49;;;;;;;3.27;1.67;;;;;;;6.56;75.14;99985.44;5076349;28;42053;-85
2022/12/27 15:38:18;;;;;;;4.17;1.70;;;;;;;6.58;75.55;99994.16;5076527;28;41058;-85
2022/12/27 15:41:09;;;;;;;4.43;1.90;;;;;;;6.43;75.49;99989.31;5076461;28;39803;-84
